Time;durP1;ratioP1;P1;durP2;ratioP2;P2;SDS_P1;SDS_P2;PMS_P1;PMS_P2;Temp;Humidity;BMP_temperature;BMP_pressure;BME280_temperature;BME280_humidity;BME280_pressure;Samples;Min_cycle;Max_cycle;Signal;HPM_P1;HPM_P2
2022/05/08 09:41:05;;;;;;;0.20;0.20;;;;;;;;;;5129551;27;20108;-84
2022/05/08 09:43:32;;;;;;;0.10;0.10;;;;;;;;;;5111656;27;20059;-81
2022/05/08 09:46:01;;;;;;;0.20;0.20;;;;;;;;;;5132475;27;20031;-84
2022/05/08 09:48:28;;;;;;;0.10;0.10;;;;;;;;;;5115253;28;20023;-79
2022/05/08 09:50:58;;;;;;;0.10;0.10;;;;;;;;;;5142728;27;20035;-83
2022/05/08 09:53:25;;;;;;;0.10;0.10;;;;;;;;;;5116332;27;20019;-83
2022/05/08 09:55:54;;;;;;;0.10;0.10;;;;;;;;;;5141273;27;20035;-83
2022/05/08 09:58:21;;;;;;;0.10;0.10;;;;;;;;;;5120941;27;20099;-83
2022/05/08 10:00:47;;;;;;;0.10;0.10;;;;;;;;;;5136722;27;20082;-84
2022/05/08 10:03:15;;;;;;;0.10;0.10;;;;;;;;;;5136882;27;20065;-83
2022/05/08 10:05:42;;;;;;;0.10;0.10;;;;;;;;;;5133684;27;20026;-82
2022/05/08 10:08:08;;;;;;;0.15;0.15;;;;;;;;;;5128543;27;20065;-88
2022/05/08 10:13:53;;;;;;;0.10;0.10;;;;;;;;;;5149341;27;20475;-85
2022/05/08 10:16:38;;;;;;;0.10;0.10;;;;;;;;;;5145531;27;20019;-85
2022/05/08 10:19:19;;;;;;;0.10;0.10;;;;;;;;;;5119154;27;20038;-81
2022/05/08 10:21:59;;;;;;;0.10;0.10;;;;;;;;;;5138188;27;20023;-80
2022/05/08 10:24:28;;;;;;;0.10;0.10;;;;;;;;;;5139293;27;20023;-80
2022/05/08 10:27:14;;;;;;;0.10;0.10;;;;;;;;;;5142924;27;20053;-78
2022/05/08 10:30:02;;;;;;;0.10;0.10;;;;;;;;;;5101875;27;20066;-78
2022/05/08 10:32:34;;;;;;;0.10;0.10;;;;;;;;;;5127454;27;20078;-79
2022/05/08 10:35:21;;;;;;;0.10;0.10;;;;;;;;;;5138178;27;20031;-78
2022/05/08 10:38:07;;;;;;;0.10;0.10;;;;;;;;;;5141607;27;20117;-79
2022/05/08 10:40:34;;;;;;;0.10;0.10;;;;;;;;;;5109001;27;20458;-76
2022/05/08 10:43:01;;;;;;;0.10;0.10;;;;;;;;;;5134455;27;20110;-76
2022/05/08 10:45:30;;;;;;;0.10;0.10;;;;;;;;;;5142218;27;20031;-77
2022/05/08 10:47:56;;;;;;;0.10;0.10;;;;;;;;;;5145182;27;20494;-76
2022/05/08 10:50:22;;;;;;;0.10;0.10;;;;;;;;;;5139057;27;20028;-76
2022/05/08 10:52:48;;;;;;;0.10;0.10;;;;;;;;;;5129180;27;20043;-77
2022/05/08 10:55:18;;;;;;;0.10;0.10;;;;;;;;;;5124180;27;20045;-76
2022/05/08 10:57:45;;;;;;;0.30;0.30;;;;;;;;;;5128414;27;20061;-76
2022/05/08 11:00:27;;;;;;;0.20;0.20;;;;;;;;;;5107900;27;20408;-77
2022/05/08 11:02:58;;;;;;;0.08;0.08;;;;;;;;;;5100371;27;20036;-76
2022/05/08 11:05:31;;;;;;;0.10;0.10;;;;;;;;;;5122237;27;20019;-79
2022/05/08 11:08:02;;;;;;;5.47;5.15;;;;;;;;;;5130855;27;20111;-77
2022/05/08 11:10:29;;;;;;;0.10;0.10;;;;;;;;;;5120387;27;20024;-78
2022/05/08 11:12:55;;;;;;;0.10;0.10;;;;;;;;;;5118904;27;20513;-79
2022/05/08 11:15:22;;;;;;;0.00;0.00;;;;;;;;;;5130227;27;20030;-80
2022/05/08 11:17:48;;;;;;;0.10;0.10;;;;;;;;;;5123350;27;20023;-77
2022/05/08 11:20:17;;;;;;;0.10;0.10;;;;;;;;;;5107859;27;20067;-79
2022/05/08 11:22:56;;;;;;;0.10;0.10;;;;;;;;;;5119693;27;20035;-79
2022/05/08 11:25:22;;;;;;;0.10;0.10;;;;;;;;;;5127158;27;20061;-80
2022/05/08 11:27:52;;;;;;;0.10;0.10;;;;;;;;;;5127904;27;20401;-78
2022/05/08 11:30:26;;;;;;;0.10;0.10;;;;;;;;;;5103097;27;20095;-81
2022/05/08 11:38:22;;;;;;;0.10;0.10;;;;;;;;;;5123251;27;20056;-80
2022/05/08 11:40:49;;;;;;;0.10;0.10;;;;;;;;;;5122017;27;20040;-80
2022/05/08 11:43:33;;;;;;;0.10;0.10;;;;;;;;;;5127210;27;20020;-79
2022/05/08 11:45:59;;;;;;;0.10;0.10;;;;;;;;;;5120900;27;20336;-82
2022/05/08 11:48:47;;;;;;;0.10;0.10;;;;;;;;;;5106110;27;20414;-79
2022/05/08 11:51:18;;;;;;;0.10;0.10;;;;;;;;;;5100736;27;20078;-78
2022/05/08 11:53:51;;;;;;;0.10;0.10;;;;;;;;;;5111449;27;20106;-78
2022/05/08 11:56:26;;;;;;;0.10;0.10;;;;;;;;;;5124018;27;20380;-78
2022/05/08 11:58:52;;;;;;;0.10;0.10;;;;;;;;;;5129202;27;20034;-77
2022/05/08 12:01:22;;;;;;;0.03;0.03;;;;;;;;;;5118835;27;20038;-79
2022/05/08 12:03:48;;;;;;;0.10;0.10;;;;;;;;;;5111119;28;20028;-78
2022/05/08 12:06:15;;;;;;;0.10;0.10;;;;;;;;;;5122836;27;20015;-78
2022/05/08 12:08:41;;;;;;;0.10;0.10;;;;;;;;;;5121213;27;20030;-76
2022/05/08 12:11:07;;;;;;;0.10;0.10;;;;;;;;;;5116940;27;20073;-77
2022/05/08 12:13:53;;;;;;;0.10;0.10;;;;;;;;;;5116361;27;20437;-79
2022/05/08 12:16:19;;;;;;;0.10;0.10;;;;;;;;;;5118596;27;20438;-78
2022/05/08 12:19:03;;;;;;;0.00;0.00;;;;;;;;;;5119716;27;20540;-79
2022/05/08 12:21:30;;;;;;;0.10;0.10;;;;;;;;;;5118557;27;20027;-79
2022/05/08 12:23:56;;;;;;;0.10;0.10;;;;;;;;;;5121805;27;20100;-78
2022/05/08 12:26:22;;;;;;;2.38;2.17;;;;;;;;;;5128388;27;20023;-78
2022/05/08 12:28:50;;;;;;;0.10;0.10;;;;;;;;;;5120717;27;20386;-79
2022/05/08 12:31:16;;;;;;;0.10;0.10;;;;;;;;;;5122126;27;20456;-78
2022/05/08 12:33:41;;;;;;;0.10;0.10;;;;;;;;;;5122479;27;20027;-79
2022/05/08 12:36:07;;;;;;;0.10;0.10;;;;;;;;;;5120450;27;20076;-78
2022/05/08 12:38:34;;;;;;;0.10;0.10;;;;;;;;;;5117108;27;20390;-77
2022/05/08 12:41:00;;;;;;;0.10;0.10;;;;;;;;;;5112166;27;20031;-77
2022/05/08 12:43:26;;;;;;;0.10;0.10;;;;;;;;;;5095616;27;21374;-76
2022/05/08 12:45:52;;;;;;;4.05;3.30;;;;;;;;;;5121620;27;20023;-74
2022/05/08 12:48:21;;;;;;;0.10;0.10;;;;;;;;;;5101140;27;20067;-77
2022/05/08 12:50:48;;;;;;;0.10;0.10;;;;;;;;;;5111371;27;20032;-78
2022/05/08 12:53:14;;;;;;;0.10;0.10;;;;;;;;;;5115928;27;20479;-79
2022/05/08 12:55:40;;;;;;;0.10;0.10;;;;;;;;;;5111553;28;20098;-79
2022/05/08 13:00:51;;;;;;;0.10;0.10;;;;;;;;;;5132343;27;20405;-79
2022/05/08 13:03:17;;;;;;;0.10;0.10;;;;;;;;;;5132496;27;20023;-79
2022/05/08 13:05:43;;;;;;;0.10;0.10;;;;;;;;;;5132091;27;20079;-78
2022/05/08 13:08:09;;;;;;;0.10;0.10;;;;;;;;;;5132640;27;20072;-78
2022/05/08 13:10:35;;;;;;;0.10;0.10;;;;;;;;;;5114195;27;20036;-79
2022/05/08 13:13:02;;;;;;;0.10;0.10;;;;;;;;;;5111699;28;20023;-78
2022/05/08 13:15:28;;;;;;;0.10;0.10;;;;;;;;;;5092956;28;20027;-78
2022/05/08 13:17:54;;;;;;;0.10;0.10;;;;;;;;;;5111295;28;20580;-80
2022/05/08 13:20:20;;;;;;;0.10;0.10;;;;;;;;;;5121620;27;20023;-79
2022/05/08 13:22:46;;;;;;;0.10;0.10;;;;;;;;;;5131934;27;20023;-80
2022/05/08 13:25:12;;;;;;;0.10;0.10;;;;;;;;;;5132184;27;20084;-81
2022/05/08 13:27:39;;;;;;;0.10;0.10;;;;;;;;;;5132356;27;20483;-81
2022/05/08 13:30:05;;;;;;;0.10;0.10;;;;;;;;;;5127170;27;20028;-79
2022/05/08 13:32:31;;;;;;;0.10;0.10;;;;;;;;;;5111597;28;20016;-78
2022/05/08 13:34:57;;;;;;;0.10;0.10;;;;;;;;;;5111347;28;20024;-78
2022/05/08 13:37:23;;;;;;;0.10;0.10;;;;;;;;;;5093309;28;20027;-79
2022/05/08 13:39:49;;;;;;;0.10;0.10;;;;;;;;;;5115746;28;20039;-78
2022/05/08 13:42:18;;;;;;;0.10;0.10;;;;;;;;;;5132080;28;20079;-78
2022/05/08 13:44:44;;;;;;;0.08;0.08;;;;;;;;;;5131719;28;20033;-78
2022/05/08 13:47:10;;;;;;;0.10;0.10;;;;;;;;;;5132052;28;20490;-78
2022/05/08 13:49:37;;;;;;;0.05;0.05;;;;;;;;;;5132423;28;20378;-78
2022/05/08 13:52:04;;;;;;;0.10;0.10;;;;;;;;;;5113351;28;20024;-78
2022/05/08 13:54:36;;;;;;;0.10;0.10;;;;;;;;;;5132033;28;20107;-79
2022/05/08 13:57:03;;;;;;;0.10;0.10;;;;;;;;;;5125747;28;20415;-78
2022/05/08 13:59:30;;;;;;;0.10;0.10;;;;;;;;;;5107905;28;20055;-78
2022/05/08 14:01:56;;;;;;;0.10;0.10;;;;;;;;;;5119644;28;20035;-78
2022/05/08 14:04:22;;;;;;;0.10;0.10;;;;;;;;;;5119395;28;20007;-77
2022/05/08 14:06:51;;;;;;;0.10;0.10;;;;;;;;;;5121046;28;20020;-79
2022/05/08 14:09:17;;;;;;;0.10;0.10;;;;;;;;;;5114073;28;20067;-78
2022/05/08 14:11:43;;;;;;;0.10;0.10;;;;;;;;;;5111153;28;20026;-81
2022/05/08 14:14:09;;;;;;;0.10;0.10;;;;;;;;;;5092975;28;20114;-82
2022/05/08 14:16:35;;;;;;;0.10;0.10;;;;;;;;;;5111592;28;20062;-80
2022/05/08 14:19:01;;;;;;;0.05;0.05;;;;;;;;;;5110957;28;20028;-77
2022/05/08 14:21:27;;;;;;;0.10;0.10;;;;;;;;;;5111079;28;20036;-78
2022/05/08 14:23:53;;;;;;;0.00;0.00;;;;;;;;;;5110761;28;20091;-78
2022/05/08 14:26:19;;;;;;;0.10;0.10;;;;;;;;;;5112737;28;20046;-79
2022/05/08 14:28:45;;;;;;;0.00;0.00;;;;;;;;;;5114664;28;20597;-81
2022/05/08 14:36:42;;;;;;;0.10;0.10;;;;;;;;;;5083091;28;20061;-78
2022/05/08 14:39:08;;;;;;;0.10;0.10;;;;;;;;;;5115036;28;20503;-79
2022/05/08 14:41:34;;;;;;;0.10;0.10;;;;;;;;;;5115163;28;20106;-79
2022/05/08 14:44:00;;;;;;;0.10;0.10;;;;;;;;;;5096177;28;20020;-79
2022/05/08 14:46:27;;;;;;;0.10;0.10;;;;;;;;;;5114681;28;20027;-79
2022/05/08 14:48:53;;;;;;;0.10;0.10;;;;;;;;;;5114396;28;20490;-78
2022/05/08 14:51:19;;;;;;;0.00;0.00;;;;;;;;;;5114535;28;20028;-79
2022/05/08 14:53:46;;;;;;;0.10;0.10;;;;;;;;;;5114385;28;20436;-80
2022/05/08 14:56:13;;;;;;;0.10;0.10;;;;;;;;;;5114320;28;20051;-78
2022/05/08 14:58:39;;;;;;;0.10;0.10;;;;;;;;;;5114156;28;20012;-78
2022/05/08 15:01:05;;;;;;;0.10;0.10;;;;;;;;;;5096522;28;20030;-78
2022/05/08 15:03:31;;;;;;;0.10;0.10;;;;;;;;;;5114396;28;20487;-78
2022/05/08 15:05:57;;;;;;;0.10;0.10;;;;;;;;;;5114038;28;20407;-79
2022/05/08 15:08:23;;;;;;;0.10;0.10;;;;;;;;;;5114308;28;20473;-78
2022/05/08 15:10:49;;;;;;;0.10;0.10;;;;;;;;;;5113966;28;20118;-79
2022/05/08 15:13:15;;;;;;;0.03;0.03;;;;;;;;;;5114293;28;20149;-78
2022/05/08 15:15:41;;;;;;;0.00;0.00;;;;;;;;;;5113783;28;20475;-78
2022/05/08 15:20:55;;;;;;;0.10;0.10;;;;;;;;;;5113878;28;20043;-78
2022/05/08 15:23:22;;;;;;;0.10;0.10;;;;;;;;;;5114046;28;20031;-79
2022/05/08 15:25:48;;;;;;;0.10;0.10;;;;;;;;;;5113678;28;20580;-79
2022/05/08 15:28:14;;;;;;;0.10;0.10;;;;;;;;;;5114039;28;20448;-78
2022/05/08 15:30:40;;;;;;;0.10;0.10;;;;;;;;;;5113568;28;20039;-78
2022/05/08 15:33:07;;;;;;;0.10;0.10;;;;;;;;;;5114456;28;20016;-80
2022/05/08 15:35:35;;;;;;;0.10;0.10;;;;;;;;;;5095521;28;20019;-80
2022/05/08 15:38:01;;;;;;;33.47;31.38;;;;;;;;;;5113456;28;20024;-80
2022/05/08 15:40:28;;;;;;;0.00;0.00;;;;;;;;;;5113542;28;20023;-82
2022/05/08 15:42:54;;;;;;;0.10;0.10;;;;;;;;;;5095108;28;20114;-80
2022/05/08 15:45:20;;;;;;;0.08;0.08;;;;;;;;;;5113454;28;20023;-79
2022/05/08 15:47:46;;;;;;;0.10;0.10;;;;;;;;;;5112872;28;20031;-80
2022/05/08 15:50:12;;;;;;;0.10;0.10;;;;;;;;;;5113655;28;20105;-80
2022/05/08 15:52:39;;;;;;;0.10;0.10;;;;;;;;;;5113146;28;20051;-80
2022/05/08 15:55:05;;;;;;;0.10;0.10;;;;;;;;;;5111798;28;20062;-80
2022/05/08 15:57:34;;;;;;;0.00;0.00;;;;;;;;;;5113024;28;20016;-80
2022/05/08 16:00:06;;;;;;;0.10;0.10;;;;;;;;;;5112042;28;20030;-80
2022/05/08 16:02:32;;;;;;;0.10;0.10;;;;;;;;;;5112259;28;20020;-80
2022/05/08 16:04:58;;;;;;;0.10;0.10;;;;;;;;;;5113028;28;20065;-80
2022/05/08 16:07:24;;;;;;;0.10;0.10;;;;;;;;;;5113048;28;20019;-80
2022/05/08 16:09:50;;;;;;;0.10;0.10;;;;;;;;;;5094540;28;20035;-80
2022/05/08 16:12:16;;;;;;;0.20;0.20;;;;;;;;;;5112954;28;20445;-80
2022/05/08 16:23:14;;;;;;;0.10;0.10;;;;;;;;;;5111159;28;20038;-80
2022/05/08 16:25:42;;;;;;;0.10;0.10;;;;;;;;;;5094025;28;20104;-80
2022/05/08 16:28:08;;;;;;;0.10;0.10;;;;;;;;;;5094779;28;20027;-80
2022/05/08 16:30:34;;;;;;;0.10;0.10;;;;;;;;;;5112817;28;20038;-80
2022/05/08 16:33:00;;;;;;;0.10;0.10;;;;;;;;;;5094037;28;20463;-80
2022/05/08 16:35:26;;;;;;;0.10;0.10;;;;;;;;;;5112525;28;20027;-80
2022/05/08 16:37:52;;;;;;;0.10;0.10;;;;;;;;;;5112262;28;20020;-80
2022/05/08 16:40:26;;;;;;;0.08;0.08;;;;;;;;;;5112393;28;20031;-81
2022/05/08 16:42:54;;;;;;;0.10;0.10;;;;;;;;;;5112270;28;20076;-80
2022/05/08 16:45:21;;;;;;;0.10;0.10;;;;;;;;;;5112192;28;20016;-80
2022/05/08 16:47:48;;;;;;;0.10;0.10;;;;;;;;;;5112044;28;20020;-80
2022/05/08 16:50:14;;;;;;;0.10;0.10;;;;;;;;;;5093321;28;20433;-81
2022/05/08 16:52:40;;;;;;;0.10;0.10;;;;;;;;;;5111992;28;20054;-80
2022/05/08 16:55:06;;;;;;;0.10;0.10;;;;;;;;;;5112350;28;20034;-80
2022/05/08 16:57:32;;;;;;;0.10;0.10;;;;;;;;;;5112126;28;20020;-80
2022/05/08 16:59:58;;;;;;;0.10;0.10;;;;;;;;;;5111796;28;21065;-80
2022/05/08 17:02:24;;;;;;;0.10;0.10;;;;;;;;;;5111981;28;20019;-80
2022/05/08 17:04:50;;;;;;;0.10;0.10;;;;;;;;;;5111727;28;20030;-80
2022/05/08 17:07:17;;;;;;;0.10;0.10;;;;;;;;;;5112012;28;20378;-80
2022/05/08 17:09:43;;;;;;;0.10;0.10;;;;;;;;;;5111526;28;20512;-80
2022/05/08 17:12:09;;;;;;;0.00;0.00;;;;;;;;;;5093586;28;20118;-80
2022/05/08 17:14:36;;;;;;;0.08;0.08;;;;;;;;;;5112315;28;20031;-81
2022/05/08 17:17:02;;;;;;;0.10;0.10;;;;;;;;;;5111644;28;20026;-80
2022/05/08 17:19:28;;;;;;;0.10;0.10;;;;;;;;;;5111642;28;20094;-80
2022/05/08 17:21:54;;;;;;;0.10;0.10;;;;;;;;;;5093081;28;20126;-80
2022/05/08 17:24:20;;;;;;;0.10;0.10;;;;;;;;;;5111626;28;20053;-80
2022/05/08 17:29:30;;;;;;;0.10;0.10;;;;;;;;;;5111594;28;20415;-81
2022/05/08 17:31:57;;;;;;;0.10;0.10;;;;;;;;;;5111258;28;20484;-79
2022/05/08 17:34:23;;;;;;;0.10;0.10;;;;;;;;;;5111778;28;20023;-80
2022/05/08 17:36:49;;;;;;;0.10;0.10;;;;;;;;;;5111398;28;20102;-80
2022/05/08 17:39:15;;;;;;;0.10;0.10;;;;;;;;;;5111374;28;20067;-81
2022/05/08 17:41:42;;;;;;;0.10;0.10;;;;;;;;;;5111389;28;20412;-79
2022/05/08 17:44:08;;;;;;;0.10;0.10;;;;;;;;;;5111912;28;20055;-82
2022/05/08 17:46:34;;;;;;;0.10;0.10;;;;;;;;;;5111741;28;20028;-81
2022/05/08 17:49:00;;;;;;;0.10;0.10;;;;;;;;;;5111049;28;20027;-81
2022/05/08 17:51:26;;;;;;;0.10;0.10;;;;;;;;;;5093150;28;20020;-80
2022/05/08 17:53:52;;;;;;;0.10;0.10;;;;;;;;;;5111126;28;20478;-80
2022/05/08 17:56:19;;;;;;;0.10;0.10;;;;;;;;;;5093256;28;20028;-82
2022/05/08 17:58:45;;;;;;;0.10;0.10;;;;;;;;;;5111082;28;20103;-80
2022/05/08 18:01:11;;;;;;;0.10;0.10;;;;;;;;;;5112624;28;20031;-80
2022/05/08 18:06:22;;;;;;;0.10;0.10;;;;;;;;;;5115691;28;20506;-82
2022/05/08 18:08:48;;;;;;;0.10;0.10;;;;;;;;;;5115099;28;20031;-83
2022/05/08 18:11:14;;;;;;;0.10;0.10;;;;;;;;;;5115420;28;20024;-83
2022/05/08 18:13:42;;;;;;;0.10;0.10;;;;;;;;;;5115027;28;20471;-83
2022/05/08 18:16:08;;;;;;;0.10;0.10;;;;;;;;;;5115516;28;20490;-81
2022/05/08 18:18:34;;;;;;;0.10;0.10;;;;;;;;;;5097208;28;20065;-79
2022/05/08 18:21:00;;;;;;;0.20;0.20;;;;;;;;;;5115047;28;20098;-79
2022/05/08 18:23:27;;;;;;;0.10;0.10;;;;;;;;;;5115129;28;20028;-81
2022/05/08 18:25:53;;;;;;;0.10;0.10;;;;;;;;;;5096588;28;20020;-83
2022/05/08 18:28:20;;;;;;;0.20;0.20;;;;;;;;;;5115159;28;20035;-81
2022/05/08 18:30:46;;;;;;;0.10;0.10;;;;;;;;;;5096329;28;20035;-81
2022/05/08 18:33:13;;;;;;;0.10;0.10;;;;;;;;;;5115108;28;20360;-82
2022/05/08 18:35:39;;;;;;;0.10;0.10;;;;;;;;;;5114898;28;20055;-78
2022/05/08 18:38:06;;;;;;;0.10;0.10;;;;;;;;;;5115210;28;20113;-81
2022/05/08 18:40:32;;;;;;;0.10;0.10;;;;;;;;;;5114230;28;20123;-81
2022/05/08 18:42:59;;;;;;;0.10;0.10;;;;;;;;;;5114525;28;20020;-80
2022/05/08 18:45:25;;;;;;;0.10;0.10;;;;;;;;;;5114669;28;20057;-81
2022/05/08 18:47:52;;;;;;;0.15;0.15;;;;;;;;;;5096114;28;20463;-82
2022/05/08 18:50:19;;;;;;;0.10;0.10;;;;;;;;;;5114578;28;20062;-81
2022/05/08 18:52:45;;;;;;;0.00;0.00;;;;;;;;;;5096044;28;20023;-79
2022/05/08 18:55:11;;;;;;;0.10;0.10;;;;;;;;;;5096160;28;20027;-80
2022/05/08 18:57:37;;;;;;;0.10;0.10;;;;;;;;;;5114738;28;20032;-79
2022/05/08 19:00:04;;;;;;;0.10;0.10;;;;;;;;;;5114227;28;20054;-82
2022/05/08 19:02:30;;;;;;;0.10;0.10;;;;;;;;;;5114420;28;20024;-81
2022/05/08 19:04:57;;;;;;;0.10;0.10;;;;;;;;;;5114141;28;20051;-80
2022/05/08 19:07:23;;;;;;;0.08;0.08;;;;;;;;;;5114255;28;20095;-80
2022/05/08 19:09:49;;;;;;;0.10;0.10;;;;;;;;;;5113789;28;20035;-80
2022/05/08 19:12:18;;;;;;;0.10;0.10;;;;;;;;;;5114349;28;20136;-79
2022/05/08 19:14:44;;;;;;;0.10;0.10;;;;;;;;;;5114365;28;20020;-81
2022/05/08 19:17:10;;;;;;;0.10;0.10;;;;;;;;;;5114079;28;20024;-79
2022/05/08 19:19:36;;;;;;;0.10;0.10;;;;;;;;;;5114589;28;20020;-78
2022/05/08 19:22:02;;;;;;;0.10;0.10;;;;;;;;;;5113767;28;20031;-78
2022/05/08 19:24:29;;;;;;;0.10;0.10;;;;;;;;;;5114077;28;20020;-78
2022/05/08 19:26:55;;;;;;;0.10;0.10;;;;;;;;;;5114139;28;20032;-80
2022/05/08 19:29:22;;;;;;;0.10;0.10;;;;;;;;;;5113688;28;20053;-77
2022/05/08 19:40:02;;;;;;;0.10;0.10;;;;;;;;;;5113228;28;20061;-78
2022/05/08 19:42:28;;;;;;;0.15;0.15;;;;;;;;;;5113586;28;20034;-78
2022/05/08 19:44:54;;;;;;;0.10;0.10;;;;;;;;;;5113313;28;20023;-78
2022/05/08 19:47:22;;;;;;;0.10;0.10;;;;;;;;;;5113406;28;20538;-78
2022/05/08 19:49:49;;;;;;;0.10;0.10;;;;;;;;;;5113339;28;20035;-77
2022/05/08 19:52:17;;;;;;;0.10;0.10;;;;;;;;;;5113558;28;20051;-77
2022/05/08 19:54:44;;;;;;;0.10;0.10;;;;;;;;;;5113052;28;20031;-78
2022/05/08 19:57:10;;;;;;;0.10;0.10;;;;;;;;;;5113029;28;20024;-77
2022/05/08 19:59:37;;;;;;;0.10;0.10;;;;;;;;;;5113645;28;20034;-76
2022/05/08 20:02:03;;;;;;;0.10;0.10;;;;;;;;;;5112901;28;20020;-77
2022/05/08 20:04:29;;;;;;;0.10;0.10;;;;;;;;;;5112991;28;20046;-77
2022/05/08 20:06:59;;;;;;;0.20;0.20;;;;;;;;;;5112791;28;20020;-77
2022/05/08 20:09:26;;;;;;;0.10;0.10;;;;;;;;;;5094548;28;20032;-76
2022/05/08 20:11:55;;;;;;;0.10;0.10;;;;;;;;;;5112605;28;20498;-77
2022/05/08 20:14:22;;;;;;;0.10;0.10;;;;;;;;;;5112038;28;20027;-76
2022/05/08 20:16:53;;;;;;;0.10;0.10;;;;;;;;;;5112637;28;20032;-78
2022/05/08 20:19:20;;;;;;;0.10;0.10;;;;;;;;;;5113103;28;20024;-78
2022/05/08 20:22:04;;;;;;;0.10;0.10;;;;;;;;;;5112776;28;20072;-79
2022/05/08 20:24:30;;;;;;;0.10;0.10;;;;;;;;;;5111858;28;20020;-79
2022/05/08 20:26:56;;;;;;;0.10;0.10;;;;;;;;;;5112215;28;20478;-80
2022/05/08 20:29:22;;;;;;;0.10;0.10;;;;;;;;;;5112497;28;20028;-79
2022/05/08 20:31:48;;;;;;;0.10;0.10;;;;;;;;;;5112497;28;20023;-79
2022/05/08 20:34:14;;;;;;;0.10;0.10;;;;;;;;;;5094418;28;20023;-80
2022/05/08 20:36:40;;;;;;;0.10;0.10;;;;;;;;;;5112266;28;20069;-79
2022/05/08 20:39:07;;;;;;;0.10;0.10;;;;;;;;;;5112837;28;20088;-79
2022/05/08 20:41:34;;;;;;;0.08;0.08;;;;;;;;;;5112304;28;20019;-79
2022/05/08 20:44:01;;;;;;;0.10;0.10;;;;;;;;;;5112292;28;20023;-79
2022/05/08 20:46:27;;;;;;;0.10;0.10;;;;;;;;;;5112600;28;20027;-79
2022/05/08 20:48:53;;;;;;;0.10;0.10;;;;;;;;;;5111989;28;20092;-79
2022/05/08 20:51:19;;;;;;;0.13;0.13;;;;;;;;;;5112385;28;20502;-79
2022/05/08 20:53:45;;;;;;;0.10;0.10;;;;;;;;;;5112082;28;20020;-79
2022/05/08 20:56:11;;;;;;;0.10;0.10;;;;;;;;;;5112235;28;20024;-79
2022/05/08 20:58:37;;;;;;;0.10;0.10;;;;;;;;;;5112467;28;20429;-78
2022/05/08 21:01:03;;;;;;;0.10;0.10;;;;;;;;;;5112030;28;20024;-79
2022/05/08 21:03:29;;;;;;;0.10;0.10;;;;;;;;;;5112108;28;20032;-78
2022/05/08 21:08:40;;;;;;;0.10;0.10;;;;;;;;;;5111992;28;20035;-78
2022/05/08 21:11:06;;;;;;;0.05;0.05;;;;;;;;;;5112225;28;20031;-78
2022/05/08 21:13:32;;;;;;;0.00;0.00;;;;;;;;;;5111904;28;20024;-78
2022/05/08 21:15:58;;;;;;;0.10;0.10;;;;;;;;;;5111751;28;20026;-78
2022/05/08 21:18:24;;;;;;;0.10;0.10;;;;;;;;;;5111963;28;20481;-78
2022/05/08 21:20:50;;;;;;;0.10;0.10;;;;;;;;;;5111572;28;20031;-78
2022/05/08 21:23:16;;;;;;;0.10;0.10;;;;;;;;;;5111724;28;20031;-78
2022/05/08 21:25:42;;;;;;;0.10;0.10;;;;;;;;;;5111706;28;20058;-78
2022/05/08 21:28:08;;;;;;;0.10;0.10;;;;;;;;;;5112301;28;20023;-78
2022/05/08 21:30:34;;;;;;;0.10;0.10;;;;;;;;;;5112036;28;20063;-78
2022/05/08 21:33:00;;;;;;;0.10;0.10;;;;;;;;;;5111528;28;20019;-78
2022/05/08 21:35:26;;;;;;;0.10;0.10;;;;;;;;;;5111455;28;20035;-78
2022/05/08 21:37:53;;;;;;;0.10;0.10;;;;;;;;;;5093154;28;20504;-78
2022/05/08 21:40:19;;;;;;;0.10;0.10;;;;;;;;;;5111357;28;20039;-78
2022/05/08 21:42:45;;;;;;;0.10;0.10;;;;;;;;;;5111532;28;20076;-78
2022/05/08 21:45:13;;;;;;;0.10;0.10;;;;;;;;;;5092897;28;20034;-78
2022/05/08 21:47:39;;;;;;;0.10;0.10;;;;;;;;;;5111198;28;20016;-78
2022/05/08 21:50:06;;;;;;;0.10;0.10;;;;;;;;;;5111810;28;20185;-79
2022/05/08 21:52:32;;;;;;;0.03;0.03;;;;;;;;;;5111489;28;20020;-78
2022/05/08 21:55:01;;;;;;;0.10;0.10;;;;;;;;;;5111336;28;20076;-78
2022/05/08 21:57:27;;;;;;;0.10;0.10;;;;;;;;;;5111466;28;20027;-78
2022/05/08 21:59:53;;;;;;;0.10;0.10;;;;;;;;;;5111407;28;20032;-78
2022/05/08 22:02:19;;;;;;;0.10;0.10;;;;;;;;;;5111502;28;20020;-78
2022/05/08 22:04:45;;;;;;;0.10;0.10;;;;;;;;;;5111314;28;20031;-78
2022/05/08 22:07:12;;;;;;;0.10;0.10;;;;;;;;;;5111416;28;20020;-78
2022/05/08 22:09:38;;;;;;;0.10;0.10;;;;;;;;;;5111723;28;20039;-78
2022/05/08 22:12:05;;;;;;;0.10;0.10;;;;;;;;;;5111731;28;20020;-78
2022/05/08 22:14:31;;;;;;;0.10;0.10;;;;;;;;;;5111219;28;20024;-78
2022/05/08 22:16:57;;;;;;;0.10;0.10;;;;;;;;;;5111117;28;20046;-77
2022/05/08 22:19:23;;;;;;;0.10;0.10;;;;;;;;;;5111291;28;20035;-78
2022/05/08 22:21:59;;;;;;;0.10;0.10;;;;;;;;;;5111116;28;20024;-78
2022/05/08 22:24:25;;;;;;;0.10;0.10;;;;;;;;;;5111341;28;20077;-78
2022/05/08 22:26:51;;;;;;;0.10;0.10;;;;;;;;;;5111136;28;20525;-78
2022/05/08 22:29:17;;;;;;;0.10;0.10;;;;;;;;;;5111143;28;20090;-78
2022/05/08 22:31:43;;;;;;;0.10;0.10;;;;;;;;;;5111191;28;20066;-78
2022/05/08 22:34:09;;;;;;;0.10;0.10;;;;;;;;;;5111192;28;20019;-78
2022/05/08 22:36:35;;;;;;;0.10;0.10;;;;;;;;;;5111474;28;20026;-78
2022/05/08 22:39:01;;;;;;;0.10;0.10;;;;;;;;;;5110667;28;20056;-78
2022/05/08 22:41:28;;;;;;;0.10;0.10;;;;;;;;;;5092708;28;20032;-78
2022/05/08 22:43:54;;;;;;;0.10;0.10;;;;;;;;;;5092917;28;20028;-77
2022/05/08 22:46:20;;;;;;;0.10;0.10;;;;;;;;;;5111148;28;20073;-78
2022/05/08 22:48:46;;;;;;;0.10;0.10;;;;;;;;;;5114588;28;20031;-77
2022/05/08 22:51:12;;;;;;;0.10;0.10;;;;;;;;;;5114647;28;20411;-78
2022/05/08 22:53:39;;;;;;;0.00;0.00;;;;;;;;;;5115025;28;20042;-77
2022/05/08 22:56:05;;;;;;;0.10;0.10;;;;;;;;;;5114833;28;20027;-77
2022/05/08 22:58:31;;;;;;;0.10;0.10;;;;;;;;;;5114500;28;20115;-77
2022/05/08 23:00:57;;;;;;;0.10;0.10;;;;;;;;;;5114152;28;20415;-78
2022/05/08 23:03:23;;;;;;;0.10;0.10;;;;;;;;;;5096205;28;20449;-78
2022/05/08 23:05:49;;;;;;;0.10;0.10;;;;;;;;;;5114228;28;20066;-77
2022/05/08 23:08:15;;;;;;;0.10;0.10;;;;;;;;;;5114465;28;20024;-77
2022/05/08 23:10:42;;;;;;;0.10;0.10;;;;;;;;;;5114088;28;20027;-79
2022/05/08 23:13:08;;;;;;;0.10;0.10;;;;;;;;;;5114606;28;20028;-78
2022/05/08 23:15:34;;;;;;;0.10;0.10;;;;;;;;;;5114416;28;20020;-77
2022/05/08 23:18:02;;;;;;;0.10;0.10;;;;;;;;;;5114026;28;20043;-77
2022/05/08 23:20:30;;;;;;;0.10;0.10;;;;;;;;;;5114109;28;20099;-78
2022/05/08 23:22:56;;;;;;;0.10;0.10;;;;;;;;;;5095608;28;20062;-78
2022/05/08 23:25:24;;;;;;;0.10;0.10;;;;;;;;;;5114139;28;20027;-79
2022/05/08 23:27:50;;;;;;;0.10;0.10;;;;;;;;;;5113951;28;20020;-79
2022/05/08 23:30:17;;;;;;;0.10;0.10;;;;;;;;;;5113897;28;20084;-80
2022/05/08 23:32:43;;;;;;;0.13;0.13;;;;;;;;;;5113747;28;20020;-80
2022/05/08 23:35:10;;;;;;;0.10;0.10;;;;;;;;;;5113951;28;20052;-78
2022/05/08 23:37:37;;;;;;;0.10;0.10;;;;;;;;;;5114211;28;20489;-79
2022/05/08 23:40:03;;;;;;;0.10;0.10;;;;;;;;;;5113412;28;20104;-80
2022/05/08 23:42:29;;;;;;;0.10;0.10;;;;;;;;;;5113827;28;20084;-80
2022/05/08 23:44:55;;;;;;;0.10;0.10;;;;;;;;;;5113466;28;20027;-80
2022/05/08 23:47:21;;;;;;;0.20;0.20;;;;;;;;;;5113695;28;20047;-79
2022/05/08 23:49:47;;;;;;;0.10;0.10;;;;;;;;;;5113307;28;20035;-79
2022/05/08 23:52:13;;;;;;;0.10;0.10;;;;;;;;;;5095229;28;20060;-79
2022/05/08 23:54:40;;;;;;;0.00;0.00;;;;;;;;;;5113304;28;20028;-78
2022/05/08 23:57:06;;;;;;;0.10;0.10;;;;;;;;;;5113828;28;20111;-78
2022/05/08 23:59:32;;;;;;;0.10;0.10;;;;;;;;;;5095076;28;20106;-79
